sensor_id;sensor_type;location;lat;lon;timestamp;P1;durP1;ratioP1;P2;durP2;ratioP2
59042;SDS011;44826;51.596;5.624;2022-12-29T00:01:22;2.90;;;2.00;;
59042;SDS011;44826;51.596;5.624;2022-12-29T00:03:47;2.55;;;1.85;;
59042;SDS011;44826;51.596;5.624;2022-12-29T00:06:13;2.13;;;1.75;;
59042;SDS011;44826;51.596;5.624;2022-12-29T00:08:38;2.10;;;1.70;;
59042;SDS011;44826;51.596;5.624;2022-12-29T00:11:09;2.20;;;1.50;;
59042;SDS011;44826;51.596;5.624;2022-12-29T00:13:37;1.90;;;1.30;;
59042;SDS011;44826;51.596;5.624;2022-12-29T00:16:21;1.40;;;1.05;;
59042;SDS011;44826;51.596;5.624;2022-12-29T00:18:46;2.40;;;1.10;;
59042;SDS011;44826;51.596;5.624;2022-12-29T00:21:13;1.58;;;0.90;;
59042;SDS011;44826;51.596;5.624;2022-12-29T00:23:58;1.30;;;0.70;;
59042;SDS011;44826;51.596;5.624;2022-12-29T00:26:41;1.70;;;0.60;;
59042;SDS011;44826;51.596;5.624;2022-12-29T00:29:25;1.05;;;0.60;;
59042;SDS011;44826;51.596;5.624;2022-12-29T00:32:09;1.08;;;0.40;;
59042;SDS011;44826;51.596;5.624;2022-12-29T00:34:53;0.70;;;0.30;;
59042;SDS011;44826;51.596;5.624;2022-12-29T00:37:37;1.40;;;0.40;;
59042;SDS011;44826;51.596;5.624;2022-12-29T00:40:24;1.30;;;0.40;;
59042;SDS011;44826;51.596;5.624;2022-12-29T00:43:21;0.98;;;0.30;;
59042;SDS011;44826;51.596;5.624;2022-12-29T00:46:05;0.82;;;0.50;;
59042;SDS011;44826;51.596;5.624;2022-12-29T00:48:30;2.28;;;0.50;;
59042;SDS011;44826;51.596;5.624;2022-12-29T00:51:14;0.65;;;0.43;;
59042;SDS011;44826;51.596;5.624;2022-12-29T00:53:40;0.40;;;0.40;;
59042;SDS011;44826;51.596;5.624;2022-12-29T00:56:05;1.33;;;0.55;;
59042;SDS011;44826;51.596;5.624;2022-12-29T00:58:30;1.20;;;0.70;;
59042;SDS011;44826;51.596;5.624;2022-12-29T01:01:02;1.95;;;1.00;;
59042;SDS011;44826;51.596;5.624;2022-12-29T01:03:29;1.08;;;0.90;;
59042;SDS011;44826;51.596;5.624;2022-12-29T01:05:54;2.70;;;1.40;;
59042;SDS011;44826;51.596;5.624;2022-12-29T01:08:20;1.85;;;1.60;;
59042;SDS011;44826;51.596;5.624;2022-12-29T01:10:45;1.95;;;1.42;;
59042;SDS011;44826;51.596;5.624;2022-12-29T01:13:10;2.30;;;1.65;;
59042;SDS011;44826;51.596;5.624;2022-12-29T01:15:35;3.17;;;1.98;;
59042;SDS011;44826;51.596;5.624;2022-12-29T01:18:01;2.55;;;1.70;;
59042;SDS011;44826;51.596;5.624;2022-12-29T01:20:26;2.72;;;1.80;;
59042;SDS011;44826;51.596;5.624;2022-12-29T01:22:53;2.30;;;1.55;;
59042;SDS011;44826;51.596;5.624;2022-12-29T01:25:18;2.53;;;1.85;;
59042;SDS011;44826;51.596;5.624;2022-12-29T01:27:44;2.45;;;1.48;;
59042;SDS011;44826;51.596;5.624;2022-12-29T01:30:09;3.28;;;1.58;;
59042;SDS011;44826;51.596;5.624;2022-12-29T01:32:34;2.83;;;1.50;;
59042;SDS011;44826;51.596;5.624;2022-12-29T01:35:00;2.40;;;1.60;;
59042;SDS011;44826;51.596;5.624;2022-12-29T01:37:25;1.73;;;1.30;;
59042;SDS011;44826;51.596;5.624;2022-12-29T01:39:50;1.55;;;1.20;;
59042;SDS011;44826;51.596;5.624;2022-12-29T01:42:16;2.40;;;1.20;;
59042;SDS011;44826;51.596;5.624;2022-12-29T01:47:15;2.65;;;1.10;;
59042;SDS011;44826;51.596;5.624;2022-12-29T01:49:47;1.70;;;0.90;;
59042;SDS011;44826;51.596;5.624;2022-12-29T01:52:13;1.05;;;0.90;;
59042;SDS011;44826;51.596;5.624;2022-12-29T01:54:40;0.90;;;0.73;;
59042;SDS011;44826;51.596;5.624;2022-12-29T01:57:13;1.35;;;0.90;;
59042;SDS011;44826;51.596;5.624;2022-12-29T01:59:46;1.70;;;0.80;;
59042;SDS011;44826;51.596;5.624;2022-12-29T02:02:18;1.85;;;0.80;;
59042;SDS011;44826;51.596;5.624;2022-12-29T02:04:43;1.40;;;0.73;;
59042;SDS011;44826;51.596;5.624;2022-12-29T02:07:20;3.28;;;0.80;;
59042;SDS011;44826;51.596;5.624;2022-12-29T02:09:48;2.35;;;0.80;;
59042;SDS011;44826;51.596;5.624;2022-12-29T02:12:14;1.23;;;0.70;;
59042;SDS011;44826;51.596;5.624;2022-12-29T02:14:40;0.88;;;0.50;;
59042;SDS011;44826;51.596;5.624;2022-12-29T02:25:40;2.33;;;0.60;;
59042;SDS011;44826;51.596;5.624;2022-12-29T02:44:27;1.33;;;0.50;;
59042;SDS011;44826;51.596;5.624;2022-12-29T02:49:48;1.80;;;0.50;;
59042;SDS011;44826;51.596;5.624;2022-12-29T02:52:26;2.25;;;0.65;;
59042;SDS011;44826;51.596;5.624;2022-12-29T02:54:57;2.70;;;0.50;;
59042;SDS011;44826;51.596;5.624;2022-12-29T02:59:54;1.52;;;0.70;;
59042;SDS011;44826;51.596;5.624;2022-12-29T03:02:43;1.65;;;0.50;;
59042;SDS011;44826;51.596;5.624;2022-12-29T03:08:05;1.63;;;0.50;;
59042;SDS011;44826;51.596;5.624;2022-12-29T03:21:40;1.33;;;0.60;;
59042;SDS011;44826;51.596;5.624;2022-12-29T03:24:32;1.30;;;0.47;;
59042;SDS011;44826;51.596;5.624;2022-12-29T03:27:02;2.00;;;0.57;;
59042;SDS011;44826;51.596;5.624;2022-12-29T03:29:32;1.52;;;0.43;;
59042;SDS011;44826;51.596;5.624;2022-12-29T03:32:00;2.05;;;0.50;;
59042;SDS011;44826;51.596;5.624;2022-12-29T03:34:27;1.73;;;0.60;;
59042;SDS011;44826;51.596;5.624;2022-12-29T03:36:59;2.13;;;0.80;;
59042;SDS011;44826;51.596;5.624;2022-12-29T03:39:28;2.33;;;0.70;;
59042;SDS011;44826;51.596;5.624;2022-12-29T03:42:01;3.25;;;0.70;;
59042;SDS011;44826;51.596;5.624;2022-12-29T03:44:34;3.00;;;0.63;;
59042;SDS011;44826;51.596;5.624;2022-12-29T03:47:02;2.35;;;0.50;;
59042;SDS011;44826;51.596;5.624;2022-12-29T03:49:28;1.13;;;0.50;;
59042;SDS011;44826;51.596;5.624;2022-12-29T03:51:53;1.67;;;0.50;;
59042;SDS011;44826;51.596;5.624;2022-12-29T03:54:19;1.00;;;0.45;;
59042;SDS011;44826;51.596;5.624;2022-12-29T03:56:44;2.35;;;0.50;;
59042;SDS011;44826;51.596;5.624;2022-12-29T03:59:09;2.03;;;0.50;;
59042;SDS011;44826;51.596;5.624;2022-12-29T04:01:35;1.48;;;0.60;;
59042;SDS011;44826;51.596;5.624;2022-12-29T04:04:00;1.33;;;0.45;;
59042;SDS011;44826;51.596;5.624;2022-12-29T04:06:25;2.28;;;0.50;;
59042;SDS011;44826;51.596;5.624;2022-12-29T04:08:50;1.63;;;0.50;;
59042;SDS011;44826;51.596;5.624;2022-12-29T04:11:16;1.67;;;0.57;;
59042;SDS011;44826;51.596;5.624;2022-12-29T04:13:41;1.30;;;0.50;;
59042;SDS011;44826;51.596;5.624;2022-12-29T04:16:06;2.50;;;0.32;;
59042;SDS011;44826;51.596;5.624;2022-12-29T04:18:33;2.10;;;0.50;;
59042;SDS011;44826;51.596;5.624;2022-12-29T04:20:58;2.58;;;0.40;;
59042;SDS011;44826;51.596;5.624;2022-12-29T04:23:27;2.42;;;0.73;;
59042;SDS011;44826;51.596;5.624;2022-12-29T04:25:54;2.17;;;0.40;;
59042;SDS011;44826;51.596;5.624;2022-12-29T04:28:19;2.25;;;0.40;;
59042;SDS011;44826;51.596;5.624;2022-12-29T04:30:44;1.15;;;0.30;;
59042;SDS011;44826;51.596;5.624;2022-12-29T04:33:10;2.42;;;0.47;;
59042;SDS011;44826;51.596;5.624;2022-12-29T04:35:36;2.35;;;0.40;;
59042;SDS011;44826;51.596;5.624;2022-12-29T04:38:01;2.30;;;0.43;;
59042;SDS011;44826;51.596;5.624;2022-12-29T04:40:27;3.20;;;0.60;;
59042;SDS011;44826;51.596;5.624;2022-12-29T04:42:52;2.38;;;0.52;;
59042;SDS011;44826;51.596;5.624;2022-12-29T04:45:17;1.27;;;0.40;;
59042;SDS011;44826;51.596;5.624;2022-12-29T04:47:43;2.40;;;0.60;;
59042;SDS011;44826;51.596;5.624;2022-12-29T04:50:08;1.63;;;0.40;;
59042;SDS011;44826;51.596;5.624;2022-12-29T04:52:34;4.03;;;0.32;;
59042;SDS011;44826;51.596;5.624;2022-12-29T04:54:59;2.63;;;0.50;;
59042;SDS011;44826;51.596;5.624;2022-12-29T04:57:25;2.75;;;0.47;;
59042;SDS011;44826;51.596;5.624;2022-12-29T04:59:50;0.88;;;0.40;;
59042;SDS011;44826;51.596;5.624;2022-12-29T05:02:16;2.80;;;0.40;;
59042;SDS011;44826;51.596;5.624;2022-12-29T05:04:42;2.33;;;0.60;;
59042;SDS011;44826;51.596;5.624;2022-12-29T05:07:07;4.07;;;0.50;;
59042;SDS011;44826;51.596;5.624;2022-12-29T05:09:33;3.90;;;0.85;;
59042;SDS011;44826;51.596;5.624;2022-12-29T05:11:58;3.60;;;0.50;;
59042;SDS011;44826;51.596;5.624;2022-12-29T05:14:24;4.18;;;0.60;;
59042;SDS011;44826;51.596;5.624;2022-12-29T05:16:49;3.05;;;0.60;;
59042;SDS011;44826;51.596;5.624;2022-12-29T05:19:14;2.78;;;0.50;;
59042;SDS011;44826;51.596;5.624;2022-12-29T05:21:40;5.07;;;0.60;;
59042;SDS011;44826;51.596;5.624;2022-12-29T05:24:05;4.47;;;0.85;;
59042;SDS011;44826;51.596;5.624;2022-12-29T05:26:30;2.30;;;0.50;;
59042;SDS011;44826;51.596;5.624;2022-12-29T05:28:56;5.10;;;1.00;;
59042;SDS011;44826;51.596;5.624;2022-12-29T05:31:21;3.28;;;0.60;;
59042;SDS011;44826;51.596;5.624;2022-12-29T05:33:46;3.05;;;0.70;;
59042;SDS011;44826;51.596;5.624;2022-12-29T05:36:11;2.95;;;0.68;;
59042;SDS011;44826;51.596;5.624;2022-12-29T05:38:37;4.63;;;0.80;;
59042;SDS011;44826;51.596;5.624;2022-12-29T05:41:03;5.38;;;0.65;;
59042;SDS011;44826;51.596;5.624;2022-12-29T05:43:28;3.47;;;0.60;;
59042;SDS011;44826;51.596;5.624;2022-12-29T05:45:53;3.22;;;0.55;;
59042;SDS011;44826;51.596;5.624;2022-12-29T05:48:19;3.60;;;0.47;;
59042;SDS011;44826;51.596;5.624;2022-12-29T05:50:48;4.45;;;0.75;;
59042;SDS011;44826;51.596;5.624;2022-12-29T05:53:14;3.55;;;0.80;;
59042;SDS011;44826;51.596;5.624;2022-12-29T05:55:40;2.85;;;0.60;;
59042;SDS011;44826;51.596;5.624;2022-12-29T05:58:05;2.72;;;0.57;;
59042;SDS011;44826;51.596;5.624;2022-12-29T06:00:30;3.00;;;0.52;;
59042;SDS011;44826;51.596;5.624;2022-12-29T06:02:56;2.50;;;0.60;;
59042;SDS011;44826;51.596;5.624;2022-12-29T06:05:21;3.85;;;0.75;;
59042;SDS011;44826;51.596;5.624;2022-12-29T06:07:46;5.22;;;0.68;;
59042;SDS011;44826;51.596;5.624;2022-12-29T06:10:12;3.42;;;0.70;;
59042;SDS011;44826;51.596;5.624;2022-12-29T06:12:37;3.08;;;0.88;;
59042;SDS011;44826;51.596;5.624;2022-12-29T06:15:03;3.90;;;0.70;;
59042;SDS011;44826;51.596;5.624;2022-12-29T06:17:28;2.47;;;0.50;;
59042;SDS011;44826;51.596;5.624;2022-12-29T06:19:54;3.38;;;0.60;;
59042;SDS011;44826;51.596;5.624;2022-12-29T06:22:19;5.10;;;0.70;;
59042;SDS011;44826;51.596;5.624;2022-12-29T06:24:44;2.00;;;0.50;;
59042;SDS011;44826;51.596;5.624;2022-12-29T06:27:09;2.80;;;0.68;;
59042;SDS011;44826;51.596;5.624;2022-12-29T06:29:35;2.67;;;0.80;;
59042;SDS011;44826;51.596;5.624;2022-12-29T06:32:02;2.95;;;0.68;;
59042;SDS011;44826;51.596;5.624;2022-12-29T06:34:28;5.68;;;0.75;;
59042;SDS011;44826;51.596;5.624;2022-12-29T06:36:53;4.00;;;0.57;;
59042;SDS011;44826;51.596;5.624;2022-12-29T06:39:19;1.83;;;0.50;;
59042;SDS011;44826;51.596;5.624;2022-12-29T06:41:44;3.75;;;0.95;;
59042;SDS011;44826;51.596;5.624;2022-12-29T06:44:09;2.42;;;0.85;;
59042;SDS011;44826;51.596;5.624;2022-12-29T06:46:35;3.15;;;0.57;;
59042;SDS011;44826;51.596;5.624;2022-12-29T06:49:00;4.82;;;0.73;;
59042;SDS011;44826;51.596;5.624;2022-12-29T06:51:25;4.00;;;0.60;;
59042;SDS011;44826;51.596;5.624;2022-12-29T06:53:50;2.88;;;0.60;;
59042;SDS011;44826;51.596;5.624;2022-12-29T06:56:16;4.03;;;0.55;;
59042;SDS011;44826;51.596;5.624;2022-12-29T06:58:41;3.30;;;0.47;;
59042;SDS011;44826;51.596;5.624;2022-12-29T07:01:06;2.83;;;0.60;;
59042;SDS011;44826;51.596;5.624;2022-12-29T07:03:31;6.00;;;0.85;;
59042;SDS011;44826;51.596;5.624;2022-12-29T07:05:57;3.40;;;0.70;;
59042;SDS011;44826;51.596;5.624;2022-12-29T07:08:23;5.65;;;0.70;;
59042;SDS011;44826;51.596;5.624;2022-12-29T07:10:48;4.40;;;0.73;;
59042;SDS011;44826;51.596;5.624;2022-12-29T07:13:13;3.20;;;0.90;;
59042;SDS011;44826;51.596;5.624;2022-12-29T07:15:39;4.85;;;0.80;;
59042;SDS011;44826;51.596;5.624;2022-12-29T07:18:04;4.07;;;0.68;;
59042;SDS011;44826;51.596;5.624;2022-12-29T07:20:29;4.72;;;0.70;;
59042;SDS011;44826;51.596;5.624;2022-12-29T07:22:55;4.65;;;0.70;;
59042;SDS011;44826;51.596;5.624;2022-12-29T07:25:21;5.40;;;0.70;;
59042;SDS011;44826;51.596;5.624;2022-12-29T07:27:46;8.10;;;0.95;;
59042;SDS011;44826;51.596;5.624;2022-12-29T07:30:12;3.95;;;0.80;;
59042;SDS011;44826;51.596;5.624;2022-12-29T07:32:37;6.10;;;0.82;;
59042;SDS011;44826;51.596;5.624;2022-12-29T07:35:03;4.28;;;0.93;;
59042;SDS011;44826;51.596;5.624;2022-12-29T07:37:28;3.72;;;0.85;;
59042;SDS011;44826;51.596;5.624;2022-12-29T07:39:53;5.25;;;1.00;;
59042;SDS011;44826;51.596;5.624;2022-12-29T07:42:19;4.93;;;0.82;;
59042;SDS011;44826;51.596;5.624;2022-12-29T07:44:44;3.25;;;0.90;;
59042;SDS011;44826;51.596;5.624;2022-12-29T07:47:09;4.32;;;0.80;;
59042;SDS011;44826;51.596;5.624;2022-12-29T07:49:34;3.83;;;0.73;;
59042;SDS011;44826;51.596;5.624;2022-12-29T07:52:00;4.60;;;0.90;;
59042;SDS011;44826;51.596;5.624;2022-12-29T07:54:25;5.00;;;0.88;;
59042;SDS011;44826;51.596;5.624;2022-12-29T07:56:50;6.72;;;1.00;;
59042;SDS011;44826;51.596;5.624;2022-12-29T07:59:16;5.25;;;1.00;;
59042;SDS011;44826;51.596;5.624;2022-12-29T08:01:41;5.25;;;0.85;;
59042;SDS011;44826;51.596;5.624;2022-12-29T08:04:06;4.95;;;1.00;;
59042;SDS011;44826;51.596;5.624;2022-12-29T08:06:32;3.78;;;0.60;;
59042;SDS011;44826;51.596;5.624;2022-12-29T08:08:57;2.97;;;0.60;;
59042;SDS011;44826;51.596;5.624;2022-12-29T08:11:22;6.78;;;0.90;;
59042;SDS011;44826;51.596;5.624;2022-12-29T08:13:48;6.35;;;0.95;;
59042;SDS011;44826;51.596;5.624;2022-12-29T08:16:14;8.05;;;0.93;;
59042;SDS011;44826;51.596;5.624;2022-12-29T08:18:39;3.85;;;0.93;;
59042;SDS011;44826;51.596;5.624;2022-12-29T08:21:04;4.18;;;0.70;;
59042;SDS011;44826;51.596;5.624;2022-12-29T08:23:30;4.05;;;0.75;;
59042;SDS011;44826;51.596;5.624;2022-12-29T08:25:57;6.93;;;1.00;;
59042;SDS011;44826;51.596;5.624;2022-12-29T08:28:23;6.07;;;0.90;;
59042;SDS011;44826;51.596;5.624;2022-12-29T08:30:48;8.27;;;1.05;;
59042;SDS011;44826;51.596;5.624;2022-12-29T08:33:13;3.78;;;0.70;;
59042;SDS011;44826;51.596;5.624;2022-12-29T08:35:39;4.50;;;0.70;;
59042;SDS011;44826;51.596;5.624;2022-12-29T08:38:04;4.60;;;0.73;;
59042;SDS011;44826;51.596;5.624;2022-12-29T08:40:29;5.40;;;0.75;;
59042;SDS011;44826;51.596;5.624;2022-12-29T08:42:55;4.15;;;0.80;;
59042;SDS011;44826;51.596;5.624;2022-12-29T08:45:20;4.45;;;0.85;;
59042;SDS011;44826;51.596;5.624;2022-12-29T08:47:45;5.30;;;0.90;;
59042;SDS011;44826;51.596;5.624;2022-12-29T08:50:10;8.35;;;1.25;;
59042;SDS011;44826;51.596;5.624;2022-12-29T08:52:36;7.65;;;0.77;;
59042;SDS011;44826;51.596;5.624;2022-12-29T08:55:01;5.25;;;1.17;;
59042;SDS011;44826;51.596;5.624;2022-12-29T08:57:26;5.60;;;0.82;;
59042;SDS011;44826;51.596;5.624;2022-12-29T08:59:51;7.40;;;1.00;;
59042;SDS011;44826;51.596;5.624;2022-12-29T09:02:17;5.40;;;0.95;;
59042;SDS011;44826;51.596;5.624;2022-12-29T09:04:42;5.20;;;1.25;;
59042;SDS011;44826;51.596;5.624;2022-12-29T09:07:07;5.15;;;0.90;;
59042;SDS011;44826;51.596;5.624;2022-12-29T09:09:33;3.38;;;0.93;;
59042;SDS011;44826;51.596;5.624;2022-12-29T09:11:58;5.22;;;0.73;;
59042;SDS011;44826;51.596;5.624;2022-12-29T09:14:23;4.43;;;0.75;;
59042;SDS011;44826;51.596;5.624;2022-12-29T09:16:50;4.22;;;1.00;;
59042;SDS011;44826;51.596;5.624;2022-12-29T09:19:35;2.95;;;0.70;;
59042;SDS011;44826;51.596;5.624;2022-12-29T09:22:00;4.22;;;0.73;;
59042;SDS011;44826;51.596;5.624;2022-12-29T09:24:25;7.20;;;0.85;;
59042;SDS011;44826;51.596;5.624;2022-12-29T09:26:51;3.83;;;0.80;;
59042;SDS011;44826;51.596;5.624;2022-12-29T09:29:16;4.80;;;0.70;;
59042;SDS011;44826;51.596;5.624;2022-12-29T09:31:41;4.43;;;0.70;;
59042;SDS011;44826;51.596;5.624;2022-12-29T09:34:06;3.97;;;0.90;;
59042;SDS011;44826;51.596;5.624;2022-12-29T09:36:32;3.85;;;0.60;;
59042;SDS011;44826;51.596;5.624;2022-12-29T09:38:57;5.78;;;0.73;;
59042;SDS011;44826;51.596;5.624;2022-12-29T09:41:26;6.95;;;1.10;;
59042;SDS011;44826;51.596;5.624;2022-12-29T09:46:32;7.50;;;1.00;;
59042;SDS011;44826;51.596;5.624;2022-12-29T09:56:51;5.07;;;0.90;;
59042;SDS011;44826;51.596;5.624;2022-12-29T09:59:19;6.80;;;1.30;;
59042;SDS011;44826;51.596;5.624;2022-12-29T10:04:33;4.53;;;0.80;;
59042;SDS011;44826;51.596;5.624;2022-12-29T10:07:14;5.45;;;0.88;;
59042;SDS011;44826;51.596;5.624;2022-12-29T10:09:58;3.47;;;0.80;;
59042;SDS011;44826;51.596;5.624;2022-12-29T10:12:52;4.75;;;0.70;;
59042;SDS011;44826;51.596;5.624;2022-12-29T10:23:27;3.17;;;0.80;;
59042;SDS011;44826;51.596;5.624;2022-12-29T10:25:57;5.78;;;1.10;;
59042;SDS011;44826;51.596;5.624;2022-12-29T10:28:34;5.45;;;0.90;;
59042;SDS011;44826;51.596;5.624;2022-12-29T10:31:09;6.40;;;0.88;;
59042;SDS011;44826;51.596;5.624;2022-12-29T10:33:41;7.07;;;0.90;;
59042;SDS011;44826;51.596;5.624;2022-12-29T10:38:40;5.90;;;1.00;;
59042;SDS011;44826;51.596;5.624;2022-12-29T10:41:37;5.15;;;0.90;;
59042;SDS011;44826;51.596;5.624;2022-12-29T10:44:07;5.47;;;1.20;;
59042;SDS011;44826;51.596;5.624;2022-12-29T10:46:36;5.38;;;1.00;;
59042;SDS011;44826;51.596;5.624;2022-12-29T10:49:02;5.55;;;1.20;;
59042;SDS011;44826;51.596;5.624;2022-12-29T10:51:30;4.28;;;0.80;;
59042;SDS011;44826;51.596;5.624;2022-12-29T10:54:02;6.25;;;0.90;;
59042;SDS011;44826;51.596;5.624;2022-12-29T10:56:33;8.35;;;1.00;;
59042;SDS011;44826;51.596;5.624;2022-12-29T10:59:36;9.73;;;1.95;;
59042;SDS011;44826;51.596;5.624;2022-12-29T11:04:38;5.35;;;1.08;;
59042;SDS011;44826;51.596;5.624;2022-12-29T11:07:07;4.47;;;0.98;;
59042;SDS011;44826;51.596;5.624;2022-12-29T11:09:34;4.97;;;1.00;;
59042;SDS011;44826;51.596;5.624;2022-12-29T11:12:23;6.85;;;1.25;;
59042;SDS011;44826;51.596;5.624;2022-12-29T11:15:00;5.30;;;0.85;;
59042;SDS011;44826;51.596;5.624;2022-12-29T11:17:27;5.07;;;1.08;;
59042;SDS011;44826;51.596;5.624;2022-12-29T11:19:53;5.45;;;1.13;;
59042;SDS011;44826;51.596;5.624;2022-12-29T11:22:25;4.50;;;0.80;;
59042;SDS011;44826;51.596;5.624;2022-12-29T11:24:53;8.25;;;1.20;;
59042;SDS011;44826;51.596;5.624;2022-12-29T11:27:23;8.13;;;1.40;;
59042;SDS011;44826;51.596;5.624;2022-12-29T11:29:51;7.63;;;1.00;;
59042;SDS011;44826;51.596;5.624;2022-12-29T11:32:21;6.13;;;1.38;;
59042;SDS011;44826;51.596;5.624;2022-12-29T11:34:49;4.13;;;1.17;;
59042;SDS011;44826;51.596;5.624;2022-12-29T11:47:52;5.50;;;1.05;;
59042;SDS011;44826;51.596;5.624;2022-12-29T11:50:24;4.90;;;1.25;;
59042;SDS011;44826;51.596;5.624;2022-12-29T11:52:57;6.82;;;1.60;;
59042;SDS011;44826;51.596;5.624;2022-12-29T11:55:26;4.75;;;1.00;;
59042;SDS011;44826;51.596;5.624;2022-12-29T11:57:53;5.95;;;1.27;;
59042;SDS011;44826;51.596;5.624;2022-12-29T12:00:21;6.78;;;1.42;;
59042;SDS011;44826;51.596;5.624;2022-12-29T12:05:28;7.53;;;1.20;;
59042;SDS011;44826;51.596;5.624;2022-12-29T12:08:11;5.15;;;1.17;;
59042;SDS011;44826;51.596;5.624;2022-12-29T12:13:51;7.38;;;1.20;;
59042;SDS011;44826;51.596;5.624;2022-12-29T12:16:21;5.97;;;1.00;;
59042;SDS011;44826;51.596;5.624;2022-12-29T12:18:50;6.10;;;1.23;;
59042;SDS011;44826;51.596;5.624;2022-12-29T12:24:20;6.28;;;1.25;;
59042;SDS011;44826;51.596;5.624;2022-12-29T12:27:01;6.15;;;1.00;;
59042;SDS011;44826;51.596;5.624;2022-12-29T12:40:35;7.85;;;1.50;;
59042;SDS011;44826;51.596;5.624;2022-12-29T12:46:19;7.97;;;1.40;;
59042;SDS011;44826;51.596;5.624;2022-12-29T12:49:07;6.20;;;1.10;;
59042;SDS011;44826;51.596;5.624;2022-12-29T13:02:43;8.45;;;1.40;;
59042;SDS011;44826;51.596;5.624;2022-12-29T13:05:20;6.53;;;1.15;;
59042;SDS011;44826;51.596;5.624;2022-12-29T13:13:33;3.33;;;0.70;;
59042;SDS011;44826;51.596;5.624;2022-12-29T13:16:17;5.40;;;0.70;;
59042;SDS011;44826;51.596;5.624;2022-12-29T13:19:09;6.18;;;0.95;;
59042;SDS011;44826;51.596;5.624;2022-12-29T13:30:05;7.53;;;1.25;;
59042;SDS011;44826;51.596;5.624;2022-12-29T13:35:42;6.72;;;1.77;;
59042;SDS011;44826;51.596;5.624;2022-12-29T13:41:04;7.75;;;1.00;;
59042;SDS011;44826;51.596;5.624;2022-12-29T13:43:34;4.95;;;1.30;;
59042;SDS011;44826;51.596;5.624;2022-12-29T13:46:09;6.85;;;1.30;;
59042;SDS011;44826;51.596;5.624;2022-12-29T13:48:39;3.50;;;1.00;;
59042;SDS011;44826;51.596;5.624;2022-12-29T13:51:11;3.78;;;1.20;;
59042;SDS011;44826;51.596;5.624;2022-12-29T13:53:41;5.10;;;1.50;;
59042;SDS011;44826;51.596;5.624;2022-12-29T14:01:41;5.43;;;1.23;;
59042;SDS011;44826;51.596;5.624;2022-12-29T14:04:22;4.57;;;1.00;;
59042;SDS011;44826;51.596;5.624;2022-12-29T14:06:59;7.30;;;1.10;;
59042;SDS011;44826;51.596;5.624;2022-12-29T14:09:47;6.13;;;1.00;;
59042;SDS011;44826;51.596;5.624;2022-12-29T14:12:34;4.70;;;1.05;;
59042;SDS011;44826;51.596;5.624;2022-12-29T14:15:06;5.00;;;1.10;;
59042;SDS011;44826;51.596;5.624;2022-12-29T14:17:59;6.22;;;1.15;;
59042;SDS011;44826;51.596;5.624;2022-12-29T14:20:26;6.72;;;0.98;;
59042;SDS011;44826;51.596;5.624;2022-12-29T14:22:56;6.25;;;1.08;;
59042;SDS011;44826;51.596;5.624;2022-12-29T14:28:22;6.53;;;1.40;;
59042;SDS011;44826;51.596;5.624;2022-12-29T14:30:51;6.28;;;1.52;;
59042;SDS011;44826;51.596;5.624;2022-12-29T14:33:18;6.35;;;1.23;;
59042;SDS011;44826;51.596;5.624;2022-12-29T14:35:45;6.25;;;1.33;;
59042;SDS011;44826;51.596;5.624;2022-12-29T14:38:23;5.70;;;1.10;;
59042;SDS011;44826;51.596;5.624;2022-12-29T14:40:51;5.70;;;1.20;;
59042;SDS011;44826;51.596;5.624;2022-12-29T14:43:19;8.82;;;1.48;;
59042;SDS011;44826;51.596;5.624;2022-12-29T14:46:20;9.18;;;1.40;;
59042;SDS011;44826;51.596;5.624;2022-12-29T14:48:39;7.40;;;1.50;;
59042;SDS011;44826;51.596;5.624;2022-12-29T14:51:21;6.53;;;1.30;;
59042;SDS011;44826;51.596;5.624;2022-12-29T14:53:53;6.95;;;1.20;;
59042;SDS011;44826;51.596;5.624;2022-12-29T14:56:19;7.40;;;1.20;;
59042;SDS011;44826;51.596;5.624;2022-12-29T15:01:26;7.72;;;1.35;;
59042;SDS011;44826;51.596;5.624;2022-12-29T15:03:58;9.05;;;1.33;;
59042;SDS011;44826;51.596;5.624;2022-12-29T15:06:29;6.28;;;1.52;;
59042;SDS011;44826;51.596;5.624;2022-12-29T15:09:06;6.20;;;1.17;;
59042;SDS011;44826;51.596;5.624;2022-12-29T15:11:49;7.65;;;1.35;;
59042;SDS011;44826;51.596;5.624;2022-12-29T15:14:52;6.72;;;1.10;;
59042;SDS011;44826;51.596;5.624;2022-12-29T15:17:27;6.95;;;1.10;;
59042;SDS011;44826;51.596;5.624;2022-12-29T15:19:54;5.00;;;1.38;;
59042;SDS011;44826;51.596;5.624;2022-12-29T15:22:21;4.70;;;1.20;;
59042;SDS011;44826;51.596;5.624;2022-12-29T15:24:48;5.97;;;1.15;;
59042;SDS011;44826;51.596;5.624;2022-12-29T15:27:19;6.50;;;1.13;;
59042;SDS011;44826;51.596;5.624;2022-12-29T15:29:55;7.18;;;1.33;;
59042;SDS011;44826;51.596;5.624;2022-12-29T15:32:26;7.03;;;1.10;;
59042;SDS011;44826;51.596;5.624;2022-12-29T15:34:54;6.75;;;1.35;;
59042;SDS011;44826;51.596;5.624;2022-12-29T15:37:32;5.38;;;1.05;;
59042;SDS011;44826;51.596;5.624;2022-12-29T15:40:00;4.40;;;0.90;;
59042;SDS011;44826;51.596;5.624;2022-12-29T15:42:48;2.80;;;0.85;;
59042;SDS011;44826;51.596;5.624;2022-12-29T15:45:26;5.65;;;0.73;;
59042;SDS011;44826;51.596;5.624;2022-12-29T15:47:57;5.45;;;1.02;;
59042;SDS011;44826;51.596;5.624;2022-12-29T15:50:26;3.33;;;0.80;;
59042;SDS011;44826;51.596;5.624;2022-12-29T15:52:53;2.92;;;0.60;;
59042;SDS011;44826;51.596;5.624;2022-12-29T15:55:41;3.88;;;0.80;;
59042;SDS011;44826;51.596;5.624;2022-12-29T15:58:17;4.07;;;0.93;;
59042;SDS011;44826;51.596;5.624;2022-12-29T16:00:46;2.35;;;0.60;;
59042;SDS011;44826;51.596;5.624;2022-12-29T16:03:14;2.88;;;0.70;;
59042;SDS011;44826;51.596;5.624;2022-12-29T16:05:40;3.88;;;0.73;;
59042;SDS011;44826;51.596;5.624;2022-12-29T16:11:02;3.50;;;0.65;;
59042;SDS011;44826;51.596;5.624;2022-12-29T16:13:41;3.70;;;0.80;;
59042;SDS011;44826;51.596;5.624;2022-12-29T16:16:09;4.65;;;0.98;;
59042;SDS011;44826;51.596;5.624;2022-12-29T16:18:45;3.17;;;0.80;;
59042;SDS011;44826;51.596;5.624;2022-12-29T16:21:19;5.03;;;0.70;;
59042;SDS011;44826;51.596;5.624;2022-12-29T16:23:48;3.95;;;0.80;;
59042;SDS011;44826;51.596;5.624;2022-12-29T16:26:16;2.67;;;0.60;;
59042;SDS011;44826;51.596;5.624;2022-12-29T16:28:43;4.00;;;0.80;;
59042;SDS011;44826;51.596;5.624;2022-12-29T16:31:20;3.50;;;0.73;;
59042;SDS011;44826;51.596;5.624;2022-12-29T16:33:49;4.00;;;0.82;;
59042;SDS011;44826;51.596;5.624;2022-12-29T16:36:21;4.47;;;0.60;;
59042;SDS011;44826;51.596;5.624;2022-12-29T16:38:48;1.83;;;0.82;;
59042;SDS011;44826;51.596;5.624;2022-12-29T16:41:27;4.20;;;0.70;;
59042;SDS011;44826;51.596;5.624;2022-12-29T16:44:16;2.67;;;0.70;;
59042;SDS011;44826;51.596;5.624;2022-12-29T16:46:44;2.75;;;0.50;;
59042;SDS011;44826;51.596;5.624;2022-12-29T16:49:22;3.88;;;0.70;;
59042;SDS011;44826;51.596;5.624;2022-12-29T16:51:48;3.60;;;0.75;;
59042;SDS011;44826;51.596;5.624;2022-12-29T16:54:19;3.85;;;0.60;;
59042;SDS011;44826;51.596;5.624;2022-12-29T16:56:48;4.32;;;0.70;;
59042;SDS011;44826;51.596;5.624;2022-12-29T17:01:54;3.30;;;0.70;;
59042;SDS011;44826;51.596;5.624;2022-12-29T17:04:21;4.05;;;0.70;;
59042;SDS011;44826;51.596;5.624;2022-12-29T17:06:46;4.80;;;0.80;;
59042;SDS011;44826;51.596;5.624;2022-12-29T17:09:19;2.63;;;0.70;;
59042;SDS011;44826;51.596;5.624;2022-12-29T17:11:53;5.80;;;0.93;;
59042;SDS011;44826;51.596;5.624;2022-12-29T17:16:48;3.30;;;0.93;;
59042;SDS011;44826;51.596;5.624;2022-12-29T17:19:32;7.97;;;1.27;;
59042;SDS011;44826;51.596;5.624;2022-12-29T17:22:00;5.50;;;1.23;;
59042;SDS011;44826;51.596;5.624;2022-12-29T17:24:26;3.90;;;1.00;;
59042;SDS011;44826;51.596;5.624;2022-12-29T17:26:53;5.45;;;1.00;;
59042;SDS011;44826;51.596;5.624;2022-12-29T17:29:29;3.65;;;0.75;;
59042;SDS011;44826;51.596;5.624;2022-12-29T17:31:57;3.25;;;0.70;;
59042;SDS011;44826;51.596;5.624;2022-12-29T17:34:23;2.63;;;0.80;;
59042;SDS011;44826;51.596;5.624;2022-12-29T17:36:49;5.50;;;1.10;;
59042;SDS011;44826;51.596;5.624;2022-12-29T17:39:14;6.20;;;1.00;;